sensor_id;sensor_type;location;lat;lon;timestamp;temperature;humidity
30037;DHT22;36325;51.512;-0.382;2023-04-30T00:00:09;11.10;99.90
30037;DHT22;36325;51.512;-0.382;2023-04-30T00:02:37;11.10;99.90
30037;DHT22;36325;51.512;-0.382;2023-04-30T00:05:05;11.10;99.90
30037;DHT22;36325;51.512;-0.382;2023-04-30T00:07:32;11.00;99.90
30037;DHT22;36325;51.512;-0.382;2023-04-30T00:09:59;11.00;99.90
30037;DHT22;36325;51.512;-0.382;2023-04-30T00:12:27;11.00;99.90
30037;DHT22;36325;51.512;-0.382;2023-04-30T00:14:54;11.00;99.90
30037;DHT22;36325;51.512;-0.382;2023-04-30T00:17:22;11.00;99.90
30037;DHT22;36325;51.512;-0.382;2023-04-30T00:19:49;10.90;99.90
30037;DHT22;36325;51.512;-0.382;2023-04-30T00:22:16;10.90;99.90
30037;DHT22;36325;51.512;-0.382;2023-04-30T00:24:44;10.90;99.90
30037;DHT22;36325;51.512;-0.382;2023-04-30T00:27:11;10.90;99.90
30037;DHT22;36325;51.512;-0.382;2023-04-30T00:29:38;10.80;99.90
30037;DHT22;36325;51.512;-0.382;2023-04-30T00:32:06;10.80;99.90
30037;DHT22;36325;51.512;-0.382;2023-04-30T00:34:34;10.80;99.90
30037;DHT22;36325;51.512;-0.382;2023-04-30T00:37:02;10.70;99.90
30037;DHT22;36325;51.512;-0.382;2023-04-30T00:39:29;10.70;99.90
30037;DHT22;36325;51.512;-0.382;2023-04-30T00:41:56;10.70;99.90
30037;DHT22;36325;51.512;-0.382;2023-04-30T00:44:23;10.70;99.90
30037;DHT22;36325;51.512;-0.382;2023-04-30T00:46:51;10.70;99.90
30037;DHT22;36325;51.512;-0.382;2023-04-30T00:49:18;10.70;99.90
30037;DHT22;36325;51.512;-0.382;2023-04-30T00:51:45;10.60;99.90
30037;DHT22;36325;51.512;-0.382;2023-04-30T00:54:13;10.60;99.90
30037;DHT22;36325;51.512;-0.382;2023-04-30T00:56:41;10.50;99.90
30037;DHT22;36325;51.512;-0.382;2023-04-30T00:59:09;10.50;99.90
30037;DHT22;36325;51.512;-0.382;2023-04-30T01:01:36;10.40;99.90
30037;DHT22;36325;51.512;-0.382;2023-04-30T01:04:05;10.40;99.90
30037;DHT22;36325;51.512;-0.382;2023-04-30T01:06:32;10.40;99.90
30037;DHT22;36325;51.512;-0.382;2023-04-30T01:09:00;10.40;99.90
30037;DHT22;36325;51.512;-0.382;2023-04-30T01:14:54;10.30;99.90
30037;DHT22;36325;51.512;-0.382;2023-04-30T01:17:37;10.20;99.90
30037;DHT22;36325;51.512;-0.382;2023-04-30T01:20:08;10.20;99.90
30037;DHT22;36325;51.512;-0.382;2023-04-30T01:22:49;10.10;99.90
30037;DHT22;36325;51.512;-0.382;2023-04-30T01:30:34;10.10;99.90
30037;DHT22;36325;51.512;-0.382;2023-04-30T01:33:02;10.00;99.90
30037;DHT22;36325;51.512;-0.382;2023-04-30T01:41:36;9.90;99.90
30037;DHT22;36325;51.512;-0.382;2023-04-30T01:47:20;9.90;99.90
30037;DHT22;36325;51.512;-0.382;2023-04-30T01:52:59;9.80;99.90
30037;DHT22;36325;51.512;-0.382;2023-04-30T01:55:36;9.80;99.90
30037;DHT22;36325;51.512;-0.382;2023-04-30T01:58:12;9.80;99.90
30037;DHT22;36325;51.512;-0.382;2023-04-30T02:00:40;9.70;99.90
30037;DHT22;36325;51.512;-0.382;2023-04-30T02:03:07;9.70;99.90
30037;DHT22;36325;51.512;-0.382;2023-04-30T02:05:35;9.70;99.90
30037;DHT22;36325;51.512;-0.382;2023-04-30T02:08:02;9.70;99.90
30037;DHT22;36325;51.512;-0.382;2023-04-30T02:10:30;9.70;99.90
30037;DHT22;36325;51.512;-0.382;2023-04-30T02:12:57;9.80;99.90
30037;DHT22;36325;51.512;-0.382;2023-04-30T02:15:25;9.80;99.90
30037;DHT22;36325;51.512;-0.382;2023-04-30T02:17:53;9.80;99.90
30037;DHT22;36325;51.512;-0.382;2023-04-30T02:20:20;9.70;99.90
30037;DHT22;36325;51.512;-0.382;2023-04-30T02:22:47;9.70;99.90
30037;DHT22;36325;51.512;-0.382;2023-04-30T02:25:15;9.70;99.90
30037;DHT22;36325;51.512;-0.382;2023-04-30T02:27:42;9.70;99.90
30037;DHT22;36325;51.512;-0.382;2023-04-30T02:30:09;9.70;99.90
30037;DHT22;36325;51.512;-0.382;2023-04-30T02:32:37;9.70;99.90
30037;DHT22;36325;51.512;-0.382;2023-04-30T02:35:06;9.70;99.90
30037;DHT22;36325;51.512;-0.382;2023-04-30T02:37:33;9.70;99.90
30037;DHT22;36325;51.512;-0.382;2023-04-30T02:40:01;9.70;99.90
30037;DHT22;36325;51.512;-0.382;2023-04-30T02:42:28;9.70;99.90
30037;DHT22;36325;51.512;-0.382;2023-04-30T02:44:56;9.70;99.90
30037;DHT22;36325;51.512;-0.382;2023-04-30T02:47:23;9.60;99.90
30037;DHT22;36325;51.512;-0.382;2023-04-30T02:49:50;9.60;99.90
30037;DHT22;36325;51.512;-0.382;2023-04-30T02:52:18;9.60;99.90
30037;DHT22;36325;51.512;-0.382;2023-04-30T02:54:45;9.60;99.90
30037;DHT22;36325;51.512;-0.382;2023-04-30T02:59:41;9.50;99.90
30037;DHT22;36325;51.512;-0.382;2023-04-30T03:02:13;9.50;99.90
30037;DHT22;36325;51.512;-0.382;2023-04-30T03:04:40;9.50;99.90
30037;DHT22;36325;51.512;-0.382;2023-04-30T03:07:07;9.40;99.90
30037;DHT22;36325;51.512;-0.382;2023-04-30T03:09:35;9.40;99.90
30037;DHT22;36325;51.512;-0.382;2023-04-30T03:12:02;7.50;99.90
30037;DHT22;36325;51.512;-0.382;2023-04-30T03:14:30;9.40;99.90
30037;DHT22;36325;51.512;-0.382;2023-04-30T03:16:57;9.40;99.90
30037;DHT22;36325;51.512;-0.382;2023-04-30T03:19:24;9.40;99.90
30037;DHT22;36325;51.512;-0.382;2023-04-30T03:21:53;9.30;99.90
30037;DHT22;36325;51.512;-0.382;2023-04-30T03:24:20;9.30;99.90
30037;DHT22;36325;51.512;-0.382;2023-04-30T03:26:47;9.30;99.90
30037;DHT22;36325;51.512;-0.382;2023-04-30T03:29:17;9.30;99.90
30037;DHT22;36325;51.512;-0.382;2023-04-30T03:31:45;9.20;99.90
30037;DHT22;36325;51.512;-0.382;2023-04-30T03:34:13;9.20;99.90
30037;DHT22;36325;51.512;-0.382;2023-04-30T03:36:40;9.10;99.90
30037;DHT22;36325;51.512;-0.382;2023-04-30T03:39:08;9.10;99.90
30037;DHT22;36325;51.512;-0.382;2023-04-30T03:41:36;9.10;99.90
30037;DHT22;36325;51.512;-0.382;2023-04-30T03:44:04;9.20;99.90
30037;DHT22;36325;51.512;-0.382;2023-04-30T03:46:31;9.10;99.90
30037;DHT22;36325;51.512;-0.382;2023-04-30T03:51:26;9.00;99.90
30037;DHT22;36325;51.512;-0.382;2023-04-30T03:53:54;8.90;99.90
30037;DHT22;36325;51.512;-0.382;2023-04-30T03:56:21;9.00;99.90
30037;DHT22;36325;51.512;-0.382;2023-04-30T03:58:49;9.00;99.90
30037;DHT22;36325;51.512;-0.382;2023-04-30T04:01:16;9.00;99.90
30037;DHT22;36325;51.512;-0.382;2023-04-30T04:03:44;8.90;99.90
30037;DHT22;36325;51.512;-0.382;2023-04-30T04:06:11;8.90;99.90
30037;DHT22;36325;51.512;-0.382;2023-04-30T04:08:39;8.90;99.90
30037;DHT22;36325;51.512;-0.382;2023-04-30T04:13:38;8.90;99.90
30037;DHT22;36325;51.512;-0.382;2023-04-30T04:16:05;9.00;99.90
30037;DHT22;36325;51.512;-0.382;2023-04-30T04:18:35;9.00;99.90
30037;DHT22;36325;51.512;-0.382;2023-04-30T04:21:03;9.00;99.90
30037;DHT22;36325;51.512;-0.382;2023-04-30T04:23:30;9.10;99.90
30037;DHT22;36325;51.512;-0.382;2023-04-30T04:25:57;9.10;99.90
30037;DHT22;36325;51.512;-0.382;2023-04-30T04:28:26;9.10;99.90
30037;DHT22;36325;51.512;-0.382;2023-04-30T04:30:53;9.10;99.90
30037;DHT22;36325;51.512;-0.382;2023-04-30T04:33:21;9.00;99.90
30037;DHT22;36325;51.512;-0.382;2023-04-30T04:35:48;9.00;99.90
30037;DHT22;36325;51.512;-0.382;2023-04-30T04:38:15;8.90;99.90
30037;DHT22;36325;51.512;-0.382;2023-04-30T04:40:53;8.90;99.90
30037;DHT22;36325;51.512;-0.382;2023-04-30T04:43:21;8.80;99.90
30037;DHT22;36325;51.512;-0.382;2023-04-30T04:45:49;8.80;99.90
30037;DHT22;36325;51.512;-0.382;2023-04-30T04:48:16;8.80;99.90
30037;DHT22;36325;51.512;-0.382;2023-04-30T04:50:44;8.80;99.90
30037;DHT22;36325;51.512;-0.382;2023-04-30T04:53:11;8.80;99.90
30037;DHT22;36325;51.512;-0.382;2023-04-30T04:55:39;8.80;99.90
30037;DHT22;36325;51.512;-0.382;2023-04-30T04:58:06;8.80;99.90
30037;DHT22;36325;51.512;-0.382;2023-04-30T05:00:34;8.80;99.90
30037;DHT22;36325;51.512;-0.382;2023-04-30T05:03:02;8.80;99.90
30037;DHT22;36325;51.512;-0.382;2023-04-30T05:05:30;8.80;99.90
30037;DHT22;36325;51.512;-0.382;2023-04-30T05:07:57;8.80;99.90
30037;DHT22;36325;51.512;-0.382;2023-04-30T05:10:25;8.90;99.90
30037;DHT22;36325;51.512;-0.382;2023-04-30T05:12:52;9.00;99.90
30037;DHT22;36325;51.512;-0.382;2023-04-30T05:15:19;9.00;99.90
30037;DHT22;36325;51.512;-0.382;2023-04-30T05:17:47;9.10;99.90
30037;DHT22;36325;51.512;-0.382;2023-04-30T05:20:14;9.10;99.90
30037;DHT22;36325;51.512;-0.382;2023-04-30T05:22:41;9.20;99.90
30037;DHT22;36325;51.512;-0.382;2023-04-30T05:25:09;9.20;99.90
30037;DHT22;36325;51.512;-0.382;2023-04-30T05:27:36;9.30;99.90
30037;DHT22;36325;51.512;-0.382;2023-04-30T05:30:03;9.30;99.90
30037;DHT22;36325;51.512;-0.382;2023-04-30T05:32:31;9.30;99.90
30037;DHT22;36325;51.512;-0.382;2023-04-30T05:34:58;9.30;99.90
30037;DHT22;36325;51.512;-0.382;2023-04-30T05:37:25;9.40;99.90
30037;DHT22;36325;51.512;-0.382;2023-04-30T05:39:52;9.40;99.90
30037;DHT22;36325;51.512;-0.382;2023-04-30T05:42:20;9.50;99.90
30037;DHT22;36325;51.512;-0.382;2023-04-30T05:44:47;11.70;99.90
30037;DHT22;36325;51.512;-0.382;2023-04-30T05:47:15;9.50;99.90
30037;DHT22;36325;51.512;-0.382;2023-04-30T05:49:43;9.60;99.90
30037;DHT22;36325;51.512;-0.382;2023-04-30T05:52:10;9.60;99.90
30037;DHT22;36325;51.512;-0.382;2023-04-30T05:54:37;9.70;99.90
30037;DHT22;36325;51.512;-0.382;2023-04-30T05:57:05;9.70;99.90
30037;DHT22;36325;51.512;-0.382;2023-04-30T06:02:00;9.80;99.90
30037;DHT22;36325;51.512;-0.382;2023-04-30T06:04:27;9.80;99.90
30037;DHT22;36325;51.512;-0.382;2023-04-30T06:06:54;9.90;99.90
30037;DHT22;36325;51.512;-0.382;2023-04-30T06:09:22;10.00;99.90
30037;DHT22;36325;51.512;-0.382;2023-04-30T06:11:49;10.00;99.90
30037;DHT22;36325;51.512;-0.382;2023-04-30T06:14:18;10.10;99.90
30037;DHT22;36325;51.512;-0.382;2023-04-30T06:16:46;10.10;99.90
30037;DHT22;36325;51.512;-0.382;2023-04-30T06:19:13;10.20;99.90
30037;DHT22;36325;51.512;-0.382;2023-04-30T06:21:41;10.20;99.90
30037;DHT22;36325;51.512;-0.382;2023-04-30T06:24:10;10.30;99.90
30037;DHT22;36325;51.512;-0.382;2023-04-30T06:26:37;10.40;99.90
30037;DHT22;36325;51.512;-0.382;2023-04-30T06:29:04;10.50;99.90
30037;DHT22;36325;51.512;-0.382;2023-04-30T06:33:59;10.50;99.90
30037;DHT22;36325;51.512;-0.382;2023-04-30T06:36:27;10.60;99.90
30037;DHT22;36325;51.512;-0.382;2023-04-30T06:38:54;10.70;99.90
30037;DHT22;36325;51.512;-0.382;2023-04-30T06:41:21;10.80;99.90
30037;DHT22;36325;51.512;-0.382;2023-04-30T06:43:48;10.80;99.90
30037;DHT22;36325;51.512;-0.382;2023-04-30T06:46:16;11.00;99.90
30037;DHT22;36325;51.512;-0.382;2023-04-30T06:48:43;11.00;99.90
30037;DHT22;36325;51.512;-0.382;2023-04-30T06:51:10;11.20;99.90
30037;DHT22;36325;51.512;-0.382;2023-04-30T06:53:37;11.20;99.90
30037;DHT22;36325;51.512;-0.382;2023-04-30T06:56:05;11.30;99.90
30037;DHT22;36325;51.512;-0.382;2023-04-30T06:58:32;11.40;99.90
30037;DHT22;36325;51.512;-0.382;2023-04-30T07:00:59;11.60;99.90
30037;DHT22;36325;51.512;-0.382;2023-04-30T07:03:27;11.70;99.90
30037;DHT22;36325;51.512;-0.382;2023-04-30T07:05:56;11.80;99.90
30037;DHT22;36325;51.512;-0.382;2023-04-30T07:10:51;12.10;99.90
30037;DHT22;36325;51.512;-0.382;2023-04-30T07:13:18;12.20;99.90
30037;DHT22;36325;51.512;-0.382;2023-04-30T07:15:45;12.40;99.90
30037;DHT22;36325;51.512;-0.382;2023-04-30T07:20:40;12.60;99.90
30037;DHT22;36325;51.512;-0.382;2023-04-30T07:23:08;12.70;99.90
30037;DHT22;36325;51.512;-0.382;2023-04-30T07:25:35;12.90;99.90
30037;DHT22;36325;51.512;-0.382;2023-04-30T07:28:02;13.10;99.90
30037;DHT22;36325;51.512;-0.382;2023-04-30T07:30:29;13.20;99.90
30037;DHT22;36325;51.512;-0.382;2023-04-30T07:32:57;13.30;99.90
30037;DHT22;36325;51.512;-0.382;2023-04-30T07:35:24;13.50;99.90
30037;DHT22;36325;51.512;-0.382;2023-04-30T07:40:19;13.80;99.90
30037;DHT22;36325;51.512;-0.382;2023-04-30T07:43:00;14.00;99.90
30037;DHT22;36325;51.512;-0.382;2023-04-30T07:45:28;14.40;99.90
30037;DHT22;36325;51.512;-0.382;2023-04-30T07:47:55;14.60;99.90
30037;DHT22;36325;51.512;-0.382;2023-04-30T07:50:22;14.80;99.90
30037;DHT22;36325;51.512;-0.382;2023-04-30T07:52:49;15.00;99.90
30037;DHT22;36325;51.512;-0.382;2023-04-30T07:55:19;15.20;99.90
30037;DHT22;36325;51.512;-0.382;2023-04-30T07:57:47;15.40;99.90
30037;DHT22;36325;51.512;-0.382;2023-04-30T08:00:15;15.60;99.90
30037;DHT22;36325;51.512;-0.382;2023-04-30T08:02:43;15.60;99.90
30037;DHT22;36325;51.512;-0.382;2023-04-30T08:05:12;15.80;99.90
30037;DHT22;36325;51.512;-0.382;2023-04-30T08:07:39;16.00;99.90
30037;DHT22;36325;51.512;-0.382;2023-04-30T08:10:07;16.10;99.90
30037;DHT22;36325;51.512;-0.382;2023-04-30T08:12:35;16.10;99.90
30037;DHT22;36325;51.512;-0.382;2023-04-30T08:15:04;16.20;99.90
30037;DHT22;36325;51.512;-0.382;2023-04-30T08:17:33;16.30;99.90
30037;DHT22;36325;51.512;-0.382;2023-04-30T08:20:02;16.50;99.90
30037;DHT22;36325;51.512;-0.382;2023-04-30T08:22:30;16.60;99.90
30037;DHT22;36325;51.512;-0.382;2023-04-30T08:24:58;16.70;99.90
30037;DHT22;36325;51.512;-0.382;2023-04-30T08:27:30;16.70;99.90
30037;DHT22;36325;51.512;-0.382;2023-04-30T08:29:57;16.80;99.90
30037;DHT22;36325;51.512;-0.382;2023-04-30T08:32:24;16.80;99.90
30037;DHT22;36325;51.512;-0.382;2023-04-30T08:34:53;16.70;99.90
30037;DHT22;36325;51.512;-0.382;2023-04-30T08:37:21;16.80;99.90
30037;DHT22;36325;51.512;-0.382;2023-04-30T08:39:48;16.90;99.90
30037;DHT22;36325;51.512;-0.382;2023-04-30T08:42:16;17.20;99.90
30037;DHT22;36325;51.512;-0.382;2023-04-30T08:44:44;17.40;99.90
30037;DHT22;36325;51.512;-0.382;2023-04-30T08:47:13;17.60;99.90
30037;DHT22;36325;51.512;-0.382;2023-04-30T08:49:42;17.60;99.90
30037;DHT22;36325;51.512;-0.382;2023-04-30T08:52:09;17.70;99.90
30037;DHT22;36325;51.512;-0.382;2023-04-30T08:54:37;17.80;99.90
30037;DHT22;36325;51.512;-0.382;2023-04-30T08:57:04;18.40;99.90
30037;DHT22;36325;51.512;-0.382;2023-04-30T08:59:32;18.40;99.90
30037;DHT22;36325;51.512;-0.382;2023-04-30T09:01:59;18.70;99.90
30037;DHT22;36325;51.512;-0.382;2023-04-30T09:04:28;19.00;99.90
30037;DHT22;36325;51.512;-0.382;2023-04-30T09:06:55;19.10;99.90
30037;DHT22;36325;51.512;-0.382;2023-04-30T09:09:36;19.20;99.90
30037;DHT22;36325;51.512;-0.382;2023-04-30T09:12:14;19.10;99.90
30037;DHT22;36325;51.512;-0.382;2023-04-30T09:15:05;19.20;99.90
30037;DHT22;36325;51.512;-0.382;2023-04-30T09:17:33;19.20;99.90
30037;DHT22;36325;51.512;-0.382;2023-04-30T09:20:11;19.20;99.90
30037;DHT22;36325;51.512;-0.382;2023-04-30T09:22:40;19.40;99.90
30037;DHT22;36325;51.512;-0.382;2023-04-30T09:25:08;19.40;99.90
30037;DHT22;36325;51.512;-0.382;2023-04-30T09:27:36;19.70;99.90
30037;DHT22;36325;51.512;-0.382;2023-04-30T09:30:04;19.70;99.90
30037;DHT22;36325;51.512;-0.382;2023-04-30T09:32:32;19.80;99.90
30037;DHT22;36325;51.512;-0.382;2023-04-30T09:34:59;19.60;99.90
30037;DHT22;36325;51.512;-0.382;2023-04-30T09:37:37;19.60;99.90
30037;DHT22;36325;51.512;-0.382;2023-04-30T09:40:05;19.80;99.90
30037;DHT22;36325;51.512;-0.382;2023-04-30T09:42:32;19.70;99.90
30037;DHT22;36325;51.512;-0.382;2023-04-30T09:45:00;19.80;99.90
30037;DHT22;36325;51.512;-0.382;2023-04-30T09:47:29;19.90;99.90
30037;DHT22;36325;51.512;-0.382;2023-04-30T09:49:58;19.80;99.90
30037;DHT22;36325;51.512;-0.382;2023-04-30T09:52:25;19.60;99.90
30037;DHT22;36325;51.512;-0.382;2023-04-30T09:54:53;19.40;99.90
30037;DHT22;36325;51.512;-0.382;2023-04-30T09:57:22;19.40;99.90
30037;DHT22;36325;51.512;-0.382;2023-04-30T09:59:51;19.50;99.90
30037;DHT22;36325;51.512;-0.382;2023-04-30T10:02:19;19.40;99.90
30037;DHT22;36325;51.512;-0.382;2023-04-30T10:04:55;19.50;99.90
30037;DHT22;36325;51.512;-0.382;2023-04-30T10:07:29;19.90;99.90
30037;DHT22;36325;51.512;-0.382;2023-04-30T10:10:06;19.90;99.90
30037;DHT22;36325;51.512;-0.382;2023-04-30T10:12:50;19.70;99.90
30037;DHT22;36325;51.512;-0.382;2023-04-30T10:15:24;19.60;99.90
30037;DHT22;36325;51.512;-0.382;2023-04-30T10:18:06;19.60;99.90
30037;DHT22;36325;51.512;-0.382;2023-04-30T10:20:35;20.30;99.90
30037;DHT22;36325;51.512;-0.382;2023-04-30T10:23:04;19.50;99.90
30037;DHT22;36325;51.512;-0.382;2023-04-30T10:25:31;19.90;99.90
30037;DHT22;36325;51.512;-0.382;2023-04-30T10:28:00;20.10;99.90
30037;DHT22;36325;51.512;-0.382;2023-04-30T10:30:30;20.30;99.90
30037;DHT22;36325;51.512;-0.382;2023-04-30T10:35:43;20.60;99.90
30037;DHT22;36325;51.512;-0.382;2023-04-30T10:38:24;20.80;99.90
30037;DHT22;36325;51.512;-0.382;2023-04-30T10:41:00;20.80;99.90
30037;DHT22;36325;51.512;-0.382;2023-04-30T10:43:29;21.10;99.90
30037;DHT22;36325;51.512;-0.382;2023-04-30T10:45:57;21.30;99.90
30037;DHT22;36325;51.512;-0.382;2023-04-30T10:48:25;21.50;99.90
30037;DHT22;36325;51.512;-0.382;2023-04-30T10:51:00;21.60;99.90
30037;DHT22;36325;51.512;-0.382;2023-04-30T10:53:30;21.60;99.90
30037;DHT22;36325;51.512;-0.382;2023-04-30T10:56:03;21.60;99.90
30037;DHT22;36325;51.512;-0.382;2023-04-30T10:58:37;21.70;99.90
30037;DHT22;36325;51.512;-0.382;2023-04-30T11:03:37;22.30;99.90
30037;DHT22;36325;51.512;-0.382;2023-04-30T11:06:15;22.40;99.90
30037;DHT22;36325;51.512;-0.382;2023-04-30T11:08:46;22.60;99.90
30037;DHT22;36325;51.512;-0.382;2023-04-30T11:11:19;22.70;99.90
30037;DHT22;36325;51.512;-0.382;2023-04-30T11:13:58;22.60;99.90
30037;DHT22;36325;51.512;-0.382;2023-04-30T11:16:34;22.60;99.90
30037;DHT22;36325;51.512;-0.382;2023-04-30T11:19:06;22.80;99.90
30037;DHT22;36325;51.512;-0.382;2023-04-30T11:21:41;22.80;99.90
30037;DHT22;36325;51.512;-0.382;2023-04-30T11:24:08;22.70;99.90
30037;DHT22;36325;51.512;-0.382;2023-04-30T11:27:04;23.00;99.90
30037;DHT22;36325;51.512;-0.382;2023-04-30T11:29:32;23.00;99.90
30037;DHT22;36325;51.512;-0.382;2023-04-30T11:32:00;22.70;99.90
30037;DHT22;36325;51.512;-0.382;2023-04-30T11:34:28;22.60;99.90
30037;DHT22;36325;51.512;-0.382;2023-04-30T11:36:58;22.70;99.90
30037;DHT22;36325;51.512;-0.382;2023-04-30T11:39:26;22.40;99.90
30037;DHT22;36325;51.512;-0.382;2023-04-30T11:41:54;22.30;99.90
30037;DHT22;36325;51.512;-0.382;2023-04-30T11:44:28;22.00;99.90
30037;DHT22;36325;51.512;-0.382;2023-04-30T11:46:55;21.90;99.90
30037;DHT22;36325;51.512;-0.382;2023-04-30T11:49:22;21.80;99.90
30037;DHT22;36325;51.512;-0.382;2023-04-30T11:51:49;21.90;99.90
30037;DHT22;36325;51.512;-0.382;2023-04-30T11:54:18;22.00;99.90
30037;DHT22;36325;51.512;-0.382;2023-04-30T11:56:46;21.90;99.90
30037;DHT22;36325;51.512;-0.382;2023-04-30T11:59:17;21.70;99.90
30037;DHT22;36325;51.512;-0.382;2023-04-30T12:01:45;21.50;99.90
30037;DHT22;36325;51.512;-0.382;2023-04-30T12:04:13;21.60;99.90
30037;DHT22;36325;51.512;-0.382;2023-04-30T12:06:40;21.70;99.90
30037;DHT22;36325;51.512;-0.382;2023-04-30T12:09:08;21.90;99.90
30037;DHT22;36325;51.512;-0.382;2023-04-30T12:11:37;21.90;99.90
30037;DHT22;36325;51.512;-0.382;2023-04-30T12:14:06;22.10;99.90
30037;DHT22;36325;51.512;-0.382;2023-04-30T12:16:51;22.20;99.90
30037;DHT22;36325;51.512;-0.382;2023-04-30T12:19:21;22.30;99.90
30037;DHT22;36325;51.512;-0.382;2023-04-30T12:21:51;22.30;99.90
30037;DHT22;36325;51.512;-0.382;2023-04-30T12:24:21;22.40;99.90
30037;DHT22;36325;51.512;-0.382;2023-04-30T12:26:53;22.30;99.90
30037;DHT22;36325;51.512;-0.382;2023-04-30T12:29:21;22.40;99.90
30037;DHT22;36325;51.512;-0.382;2023-04-30T12:31:49;22.40;99.90
30037;DHT22;36325;51.512;-0.382;2023-04-30T12:34:18;22.70;99.90
30037;DHT22;36325;51.512;-0.382;2023-04-30T12:36:46;22.80;99.90
30037;DHT22;36325;51.512;-0.382;2023-04-30T12:39:14;22.70;99.90
30037;DHT22;36325;51.512;-0.382;2023-04-30T12:41:47;22.80;99.90
30037;DHT22;36325;51.512;-0.382;2023-04-30T12:44:19;23.30;99.90
30037;DHT22;36325;51.512;-0.382;2023-04-30T12:46:51;23.80;99.90
30037;DHT22;36325;51.512;-0.382;2023-04-30T12:49:32;24.10;99.90
30037;DHT22;36325;51.512;-0.382;2023-04-30T12:52:03;23.90;99.90
30037;DHT22;36325;51.512;-0.382;2023-04-30T12:54:35;24.10;99.90
30037;DHT22;36325;51.512;-0.382;2023-04-30T12:57:04;24.10;99.90
30037;DHT22;36325;51.512;-0.382;2023-04-30T12:59:35;23.80;99.90
30037;DHT22;36325;51.512;-0.382;2023-04-30T13:02:11;23.90;99.90
30037;DHT22;36325;51.512;-0.382;2023-04-30T13:04:41;24.30;99.90
30037;DHT22;36325;51.512;-0.382;2023-04-30T13:07:09;24.90;99.90
30037;DHT22;36325;51.512;-0.382;2023-04-30T13:09:37;25.00;99.90
30037;DHT22;36325;51.512;-0.382;2023-04-30T13:12:05;24.90;99.90
30037;DHT22;36325;51.512;-0.382;2023-04-30T13:14:33;25.00;99.90
30037;DHT22;36325;51.512;-0.382;2023-04-30T13:17:03;25.30;99.90
30037;DHT22;36325;51.512;-0.382;2023-04-30T13:19:33;25.60;99.90
30037;DHT22;36325;51.512;-0.382;2023-04-30T13:22:04;26.10;99.90
30037;DHT22;36325;51.512;-0.382;2023-04-30T13:24:31;26.70;99.90
30037;DHT22;36325;51.512;-0.382;2023-04-30T13:26:59;27.00;99.90
30037;DHT22;36325;51.512;-0.382;2023-04-30T13:29:29;26.80;99.90
30037;DHT22;36325;51.512;-0.382;2023-04-30T13:31:56;26.80;99.90
30037;DHT22;36325;51.512;-0.382;2023-04-30T13:34:24;26.50;99.90
30037;DHT22;36325;51.512;-0.382;2023-04-30T13:36:51;26.40;99.90
30037;DHT22;36325;51.512;-0.382;2023-04-30T13:39:20;26.00;99.90
30037;DHT22;36325;51.512;-0.382;2023-04-30T13:41:47;25.90;99.90
30037;DHT22;36325;51.512;-0.382;2023-04-30T13:44:15;25.60;99.90
30037;DHT22;36325;51.512;-0.382;2023-04-30T13:46:43;25.00;99.90
30037;DHT22;36325;51.512;-0.382;2023-04-30T13:49:10;24.70;99.90
30037;DHT22;36325;51.512;-0.382;2023-04-30T13:51:38;25.20;99.90
30037;DHT22;36325;51.512;-0.382;2023-04-30T13:54:05;25.60;99.90
30037;DHT22;36325;51.512;-0.382;2023-04-30T13:56:32;25.60;99.90
30037;DHT22;36325;51.512;-0.382;2023-04-30T13:59:00;25.30;99.90
30037;DHT22;36325;51.512;-0.382;2023-04-30T14:01:27;24.80;99.90
30037;DHT22;36325;51.512;-0.382;2023-04-30T14:03:54;24.10;99.90
30037;DHT22;36325;51.512;-0.382;2023-04-30T14:06:21;23.90;99.90
30037;DHT22;36325;51.512;-0.382;2023-04-30T14:08:48;24.00;99.90
30037;DHT22;36325;51.512;-0.382;2023-04-30T14:11:16;24.10;99.90
30037;DHT22;36325;51.512;-0.382;2023-04-30T14:13:43;23.90;99.90
30037;DHT22;36325;51.512;-0.382;2023-04-30T14:16:10;23.90;99.90
30037;DHT22;36325;51.512;-0.382;2023-04-30T14:18:37;23.70;99.90
30037;DHT22;36325;51.512;-0.382;2023-04-30T14:21:05;23.30;99.90
30037;DHT22;36325;51.512;-0.382;2023-04-30T14:23:32;23.00;99.90
30037;DHT22;36325;51.512;-0.382;2023-04-30T14:26:00;23.10;99.90
30037;DHT22;36325;51.512;-0.382;2023-04-30T14:28:27;23.10;99.90
30037;DHT22;36325;51.512;-0.382;2023-04-30T14:30:54;22.80;99.90
30037;DHT22;36325;51.512;-0.382;2023-04-30T14:33:22;22.80;99.90
30037;DHT22;36325;51.512;-0.382;2023-04-30T14:35:49;22.90;99.90
30037;DHT22;36325;51.512;-0.382;2023-04-30T14:38:16;22.70;99.90
30037;DHT22;36325;51.512;-0.382;2023-04-30T14:40:43;22.40;99.90
30037;DHT22;36325;51.512;-0.382;2023-04-30T14:43:10;21.90;99.90
30037;DHT22;36325;51.512;-0.382;2023-04-30T14:45:38;21.50;99.90
30037;DHT22;36325;51.512;-0.382;2023-04-30T14:48:06;21.30;99.90
30037;DHT22;36325;51.512;-0.382;2023-04-30T14:50:33;21.20;99.90
30037;DHT22;36325;51.512;-0.382;2023-04-30T14:53:01;21.00;99.90
30037;DHT22;36325;51.512;-0.382;2023-04-30T14:55:30;20.70;99.90
30037;DHT22;36325;51.512;-0.382;2023-04-30T14:58:00;20.50;99.90
30037;DHT22;36325;51.512;-0.382;2023-04-30T15:00:27;20.20;99.90
30037;DHT22;36325;51.512;-0.382;2023-04-30T15:02:55;20.00;99.90
30037;DHT22;36325;51.512;-0.382;2023-04-30T15:05:22;19.90;99.90
30037;DHT22;36325;51.512;-0.382;2023-04-30T15:07:49;19.80;99.90
30037;DHT22;36325;51.512;-0.382;2023-04-30T15:10:17;19.60;99.90
30037;DHT22;36325;51.512;-0.382;2023-04-30T15:12:44;19.50;99.90
30037;DHT22;36325;51.512;-0.382;2023-04-30T15:15:12;19.50;99.90
30037;DHT22;36325;51.512;-0.382;2023-04-30T15:17:39;19.40;99.90
30037;DHT22;36325;51.512;-0.382;2023-04-30T15:20:07;19.30;99.90
30037;DHT22;36325;51.512;-0.382;2023-04-30T15:22:35;19.20;99.90
30037;DHT22;36325;51.512;-0.382;2023-04-30T15:25:02;19.10;99.90
30037;DHT22;36325;51.512;-0.382;2023-04-30T15:27:29;19.10;99.90
30037;DHT22;36325;51.512;-0.382;2023-04-30T15:29:58;18.90;99.90
30037;DHT22;36325;51.512;-0.382;2023-04-30T15:32:26;18.80;99.90
30037;DHT22;36325;51.512;-0.382;2023-04-30T15:34:53;18.80;99.90
30037;DHT22;36325;51.512;-0.382;2023-04-30T15:37:21;18.80;99.90
30037;DHT22;36325;51.512;-0.382;2023-04-30T15:39:48;18.70;99.90
30037;DHT22;36325;51.512;-0.382;2023-04-30T15:42:15;18.60;99.90
30037;DHT22;36325;51.512;-0.382;2023-04-30T15:44:43;18.50;99.90
30037;DHT22;36325;51.512;-0.382;2023-04-30T15:47:10;18.50;99.90
30037;DHT22;36325;51.512;-0.382;2023-04-30T15:49:38;18.50;99.90
30037;DHT22;36325;51.512;-0.382;2023-04-30T15:52:05;18.50;99.90
30037;DHT22;36325;51.512;-0.382;2023-04-30T15:54:33;18.40;99.90
30037;DHT22;36325;51.512;-0.382;2023-04-30T15:57:00;18.40;99.90
30037;DHT22;36325;51.512;-0.382;2023-04-30T15:59:28;18.40;99.90
30037;DHT22;36325;51.512;-0.382;2023-04-30T16:01:56;18.40;99.90
30037;DHT22;36325;51.512;-0.382;2023-04-30T16:04:24;18.40;99.90
30037;DHT22;36325;51.512;-0.382;2023-04-30T16:06:51;18.40;99.90
30037;DHT22;36325;51.512;-0.382;2023-04-30T16:09:19;18.40;99.90
30037;DHT22;36325;51.512;-0.382;2023-04-30T16:11:47;18.30;99.90
30037;DHT22;36325;51.512;-0.382;2023-04-30T16:14:15;18.20;99.90